Terminal Aerodrome Forecast
Issued by NWS Jackson, MS

Current Version | Previous Version | Text Only | Print | Product List | Glossary On
Versions: 1 2 3 4 5 6 7 8 9 10 11 12 13
000
FTUS44 KJAN 181100
TAFGWO
TAF
KGWO 181129Z 1812/1912 03005KT P6SM OVC050
     FM181300 05006KT P6SM OVC025
     FM181800 06006KT P6SM VCSH OVC050
     FM190000 08003KT P6SM SCT100=

USA.gov is the U.S. government's official web portal to all federal, state and local government web resources and services.